Time;durP1;ratioP1;P1;durP2;ratioP2;P2;SDS_P1;SDS_P2;PMS_P1;PMS_P2;Temp;Humidity;BMP_temperature;BMP_pressure;BME280_temperature;BME280_humidity;BME280_pressure;Samples;Min_cycle;Max_cycle;Signal;HPM_P1;HPM_P2
2022/03/24 00:00:36;;;;;;;46.25;25.90;;;4.10;92.30;;;;;;5033148;28;20045;-91
2022/03/24 00:03:01;;;;;;;44.10;25.75;;;4.10;92.30;;;;;;5000987;28;20108;-92
2022/03/24 00:05:27;;;;;;;43.95;25.50;;;4.00;92.30;;;;;;5026151;28;20049;-91
2022/03/24 00:07:53;;;;;;;46.13;26.20;;;4.00;92.50;;;;;;5030707;28;20217;-92
2022/03/24 00:10:19;;;;;;;45.92;26.25;;;4.00;92.70;;;;;;5056580;28;20038;-93
2022/03/24 00:12:44;;;;;;;51.58;27.42;;;3.90;92.90;;;;;;5028953;28;20048;-92
2022/03/24 00:15:10;;;;;;;53.67;27.92;;;3.90;93.20;;;;;;5032933;28;20048;-92
2022/03/24 00:17:36;;;;;;;48.42;26.42;;;4.00;93.50;;;;;;5028378;28;20044;-93
2022/03/24 00:20:03;;;;;;;47.45;28.02;;;4.00;93.60;;;;;;5066732;28;20045;-93
2022/03/24 00:22:28;;;;;;;42.67;26.17;;;3.90;93.70;;;;;;5028017;28;20072;-91
2022/03/24 00:24:54;;;;;;;52.10;26.88;;;3.90;93.80;;;;;;5054590;28;20100;-93
2022/03/24 00:27:20;;;;;;;50.20;26.58;;;3.80;93.90;;;;;;5044301;28;20463;-92
2022/03/24 00:29:46;;;;;;;47.08;26.80;;;3.80;93.90;;;;;;5052987;28;20466;-92
2022/03/24 00:32:12;;;;;;;51.47;27.83;;;3.70;94.00;;;;;;5025140;28;20478;-92
2022/03/24 00:34:38;;;;;;;46.03;26.75;;;3.70;94.10;;;;;;5032700;28;20129;-92
2022/03/24 00:37:04;;;;;;;54.95;28.15;;;3.60;94.20;;;;;;5033875;28;20053;-91
2022/03/24 00:39:33;;;;;;;48.47;28.63;;;3.60;94.40;;;;;;5050160;28;20057;-90
2022/03/24 00:42:07;;;;;;;53.90;28.98;;;3.60;94.60;;;;;;5064205;28;20094;-92
2022/03/24 00:44:32;;;;;;;54.33;28.33;;;3.50;94.80;;;;;;5066459;28;20070;-91
2022/03/24 00:46:59;;;;;;;48.53;27.45;;;3.50;94.90;;;;;;5033932;28;20049;-92
2022/03/24 00:49:26;;;;;;;53.85;28.15;;;3.40;95.10;;;;;;5047567;28;20048;-91
2022/03/24 00:51:54;;;;;;;48.03;27.13;;;3.40;95.20;;;;;;5093701;28;20047;-90
2022/03/24 00:54:20;;;;;;;48.38;28.27;;;3.30;95.20;;;;;;5082152;28;20053;-91
2022/03/24 00:56:46;;;;;;;47.70;26.67;;;3.30;95.40;;;;;;5060393;28;20045;-92
2022/03/24 00:59:12;;;;;;;49.20;27.70;;;3.30;95.60;;;;;;5044814;28;20041;-92
2022/03/24 01:01:39;;;;;;;47.63;26.98;;;3.20;96.00;;;;;;5067327;28;20048;-91
2022/03/24 01:04:09;;;;;;;51.53;27.55;;;3.20;95.80;;;;;;5047008;28;20056;-92
2022/03/24 01:06:35;;;;;;;51.88;27.85;;;3.20;95.90;;;;;;5028609;28;20056;-92
2022/03/24 01:09:03;;;;;;;55.08;29.10;;;3.20;96.00;;;;;;5073702;28;20045;-91
2022/03/24 01:11:28;;;;;;;51.67;27.05;;;3.10;96.00;;;;;;5039931;28;20114;-91
2022/03/24 01:13:54;;;;;;;51.22;28.25;;;3.20;96.20;;;;;;5047651;28;20104;-92
2022/03/24 01:16:21;;;;;;;51.95;29.25;;;3.10;96.30;;;;;;5022005;28;20051;-91
2022/03/24 01:18:46;;;;;;;54.45;29.95;;;3.00;96.50;;;;;;5040982;28;20108;-91
2022/03/24 01:21:16;;;;;;;56.17;29.63;;;3.00;96.40;;;;;;5057700;28;20140;-91
2022/03/24 01:23:46;;;;;;;58.75;30.77;;;3.00;96.50;;;;;;5030179;28;20448;-92
2022/03/24 01:26:12;;;;;;;57.95;31.50;;;3.00;96.50;;;;;;5036356;28;20041;-92
2022/03/24 01:28:40;;;;;;;56.03;31.15;;;3.00;96.70;;;;;;5050110;28;20059;-92
2022/03/24 01:31:08;;;;;;;57.72;31.00;;;2.90;96.90;;;;;;5039055;28;20527;-92
2022/03/24 01:33:37;;;;;;;59.47;33.63;;;2.90;97.00;;;;;;5026248;28;20040;-92
2022/03/24 01:36:04;;;;;;;55.63;30.48;;;3.00;97.10;;;;;;5044196;28;20080;-90
2022/03/24 01:38:30;;;;;;;54.67;29.65;;;2.90;97.20;;;;;;5036249;28;20072;-89
2022/03/24 01:40:58;;;;;;;57.67;29.15;;;2.90;97.10;;;;;;5001273;28;20053;-92
2022/03/24 01:43:25;;;;;;;51.38;28.88;;;2.90;97.30;;;;;;5018058;28;20056;-91
2022/03/24 01:45:50;;;;;;;57.90;30.10;;;2.90;97.40;;;;;;5034854;28;20220;-91
2022/03/24 01:48:16;;;;;;;55.75;30.38;;;2.80;97.40;;;;;;5036225;28;20450;-93
2022/03/24 01:50:43;;;;;;;62.45;33.28;;;2.80;97.70;;;;;;5040963;28;20048;-90
2022/03/24 01:53:10;;;;;;;60.00;33.10;;;2.80;97.90;;;;;;5032266;28;20057;-92
2022/03/24 01:55:37;;;;;;;58.05;30.13;;;2.80;98.10;;;;;;5029627;28;20136;-91
2022/03/24 01:58:04;;;;;;;60.92;32.80;;;2.80;98.20;;;;;;5018560;28;20132;-92
2022/03/24 02:00:30;;;;;;;59.45;32.35;;;2.70;98.20;;;;;;5018279;28;20156;-92
2022/03/24 02:02:59;;;;;;;62.05;32.55;;;2.70;98.40;;;;;;5050678;28;20075;-93
2022/03/24 02:05:24;;;;;;;58.42;33.33;;;2.70;98.40;;;;;;5046499;28;20048;-91
2022/03/24 02:07:50;;;;;;;61.47;32.50;;;2.70;98.60;;;;;;5022872;28;20040;-93
2022/03/24 02:10:16;;;;;;;58.90;32.20;;;2.60;98.70;;;;;;5019730;28;20426;-92
2022/03/24 02:12:42;;;;;;;56.15;30.60;;;2.60;98.80;;;;;;5048685;28;20061;-90
2022/03/24 02:15:09;;;;;;;55.08;29.33;;;2.60;98.90;;;;;;5039531;28;20056;-91
2022/03/24 02:17:39;;;;;;;57.88;29.33;;;2.60;99.00;;;;;;5055099;28;20049;-88
2022/03/24 02:20:06;;;;;;;52.15;27.73;;;2.60;99.10;;;;;;5032551;28;20049;-92
2022/03/24 02:22:32;;;;;;;57.67;30.02;;;2.50;99.10;;;;;;5024496;28;20124;-92
2022/03/24 02:24:57;;;;;;;61.35;30.55;;;2.50;99.20;;;;;;5037690;28;20478;-91
2022/03/24 02:27:24;;;;;;;59.63;30.38;;;2.40;99.30;;;;;;5034501;28;20592;-91
2022/03/24 02:29:51;;;;;;;57.83;30.88;;;2.40;99.50;;;;;;5002943;28;20045;-92
2022/03/24 02:32:21;;;;;;;63.80;32.28;;;2.30;99.70;;;;;;5051948;28;20049;-92
2022/03/24 02:34:51;;;;;;;54.00;29.52;;;2.30;99.90;;;;;;5031918;28;20041;-92
2022/03/24 02:37:25;;;;;;;53.65;29.40;;;2.30;99.90;;;;;;5057239;28;20064;-92
2022/03/24 02:39:59;;;;;;;55.38;29.77;;;2.30;99.90;;;;;;5048970;28;20049;-92
2022/03/24 02:42:28;;;;;;;59.40;30.30;;;2.20;99.90;;;;;;5043253;28;20102;-92
2022/03/24 02:44:57;;;;;;;59.47;31.48;;;2.10;99.90;;;;;;5050267;28;20049;-92
2022/03/24 02:47:23;;;;;;;54.85;29.38;;;2.10;99.90;;;;;;5034224;28;20048;-88
2022/03/24 02:49:51;;;;;;;59.28;29.98;;;2.10;99.90;;;;;;5034729;28;20079;-91
2022/03/24 02:52:17;;;;;;;55.33;29.50;;;2.10;99.90;;;;;;5030633;28;20076;-92
2022/03/24 02:54:43;;;;;;;61.88;30.00;;;2.10;99.90;;;;;;5033006;28;20479;-90
2022/03/24 02:57:09;;;;;;;54.83;30.30;;;2.00;99.90;;;;;;5034949;28;20037;-92
2022/03/24 02:59:36;;;;;;;67.60;30.52;;;2.00;99.90;;;;;;5037328;28;20131;-88
2022/03/24 03:02:06;;;;;;;59.42;30.55;;;2.10;99.90;;;;;;5038026;28;20052;-93
2022/03/24 03:04:32;;;;;;;57.13;29.50;;;2.00;99.90;;;;;;5033111;28;20036;-92
2022/03/24 03:07:00;;;;;;;48.70;27.15;;;2.00;99.90;;;;;;5036191;28;20079;-91
2022/03/24 03:09:26;;;;;;;52.65;29.33;;;2.00;99.90;;;;;;5041748;28;20110;-90
2022/03/24 03:11:52;;;;;;;60.78;30.30;;;2.00;99.90;;;;;;5051276;28;20490;-90
2022/03/24 03:14:19;;;;;;;57.13;28.67;;;2.00;99.90;;;;;;5014711;28;20042;-89
2022/03/24 03:16:46;;;;;;;51.97;27.83;;;1.90;99.90;;;;;;5039260;28;20049;-90
2022/03/24 03:19:13;;;;;;;50.78;27.50;;;1.90;99.90;;;;;;5068569;28;20123;-89
2022/03/24 03:21:40;;;;;;;48.80;25.98;;;2.00;99.90;;;;;;5039732;28;20050;-88
2022/03/24 03:24:07;;;;;;;52.60;28.45;;;2.00;99.90;;;;;;5047189;28;20057;-90
2022/03/24 03:26:34;;;;;;;53.00;29.92;;;1.90;99.90;;;;;;5025283;28;20108;-91
2022/03/24 03:28:59;;;;;;;53.67;29.83;;;2.00;99.90;;;;;;5033013;28;20128;-92
2022/03/24 03:31:26;;;;;;;55.35;30.85;;;2.00;99.90;;;;;;5058296;28;20140;-91
2022/03/24 03:33:52;;;;;;;54.25;29.13;;;1.90;99.90;;;;;;5052013;28;20045;-90
2022/03/24 03:36:19;;;;;;;53.95;28.63;;;1.90;99.90;;;;;;5014300;28;20449;-90
2022/03/24 03:38:48;;;;;;;60.20;32.00;;;1.80;99.90;;;;;;5048684;28;20210;-92
2022/03/24 03:41:15;;;;;;;59.05;32.50;;;1.80;99.90;;;;;;5055484;28;20048;-91
2022/03/24 03:43:42;;;;;;;65.07;33.58;;;1.80;99.90;;;;;;5066854;28;20047;-92
2022/03/24 03:46:08;;;;;;;62.42;34.65;;;1.80;99.90;;;;;;5047859;28;20041;-90
2022/03/24 03:48:38;;;;;;;65.45;33.33;;;1.70;99.90;;;;;;5036291;28;20042;-90
2022/03/24 03:51:05;;;;;;;62.55;33.20;;;1.70;99.90;;;;;;5049832;28;20135;-92
2022/03/24 03:53:30;;;;;;;66.20;35.47;;;1.60;99.90;;;;;;5031420;28;20041;-92
2022/03/24 03:55:56;;;;;;;65.35;33.85;;;1.60;99.90;;;;;;5034240;28;20056;-93
2022/03/24 03:58:22;;;;;;;61.33;31.42;;;1.60;99.90;;;;;;5033765;28;20144;-91
2022/03/24 04:00:57;;;;;;;76.32;36.80;;;1.60;99.90;;;;;;5031369;28;20516;-91
2022/03/24 04:03:31;;;;;;;76.05;38.58;;;1.50;99.90;;;;;;5021794;28;20488;-88
2022/03/24 04:05:59;;;;;;;79.03;39.72;;;1.50;99.90;;;;;;5039160;28;20040;-91
2022/03/24 04:08:27;;;;;;;83.55;43.35;;;1.50;99.90;;;;;;5050135;28;20598;-92
2022/03/24 04:10:54;;;;;;;83.38;41.58;;;1.50;99.90;;;;;;5031051;28;20056;-90
2022/03/24 04:13:21;;;;;;;90.05;43.28;;;1.50;99.90;;;;;;5045413;28;20620;-91
2022/03/24 04:15:48;;;;;;;88.28;43.72;;;1.50;99.90;;;;;;5035336;28;20040;-89
2022/03/24 04:18:15;;;;;;;80.75;41.78;;;1.50;99.90;;;;;;5033320;28;20445;-90
2022/03/24 04:20:41;;;;;;;82.60;42.03;;;1.40;99.90;;;;;;5032599;28;20485;-90
2022/03/24 04:23:07;;;;;;;85.50;42.63;;;1.40;99.90;;;;;;5017670;28;20045;-91
2022/03/24 04:25:34;;;;;;;64.15;33.90;;;1.40;99.90;;;;;;5047990;28;20041;-92
2022/03/24 04:28:00;;;;;;;63.28;33.42;;;1.30;99.90;;;;;;5057874;28;20075;-91
2022/03/24 04:30:26;;;;;;;67.75;35.80;;;1.40;99.90;;;;;;5029681;28;20084;-91
2022/03/24 04:32:52;;;;;;;61.75;31.80;;;1.40;99.90;;;;;;5032450;28;20045;-90
2022/03/24 04:35:19;;;;;;;55.30;29.60;;;1.40;99.90;;;;;;5039984;28;20044;-90
2022/03/24 04:37:45;;;;;;;58.70;29.98;;;1.40;99.90;;;;;;5032895;28;20080;-88
2022/03/24 04:40:12;;;;;;;57.80;28.10;;;1.40;99.90;;;;;;5054686;28;20056;-90
2022/03/24 04:42:39;;;;;;;59.05;29.70;;;1.40;99.90;;;;;;5064277;28;20147;-89
2022/03/24 04:45:06;;;;;;;56.88;29.83;;;1.40;99.90;;;;;;5038898;28;20049;-91
2022/03/24 04:47:32;;;;;;;52.00;27.02;;;1.40;99.90;;;;;;5050337;28;20075;-90
2022/03/24 04:49:58;;;;;;;50.17;26.88;;;1.30;99.90;;;;;;5050302;28;20045;-89
2022/03/24 04:52:24;;;;;;;51.65;28.55;;;1.30;99.90;;;;;;5031801;28;20059;-90
2022/03/24 04:54:50;;;;;;;53.45;28.13;;;1.30;99.90;;;;;;5086647;28;20041;-91
2022/03/24 04:57:15;;;;;;;57.22;29.95;;;1.30;99.90;;;;;;5016066;28;20145;-91
2022/03/24 04:59:42;;;;;;;64.05;32.83;;;1.20;99.90;;;;;;5014390;28;20045;-91
2022/03/24 05:02:12;;;;;;;62.67;33.55;;;1.20;99.90;;;;;;5048430;28;20053;-90
2022/03/24 05:04:40;;;;;;;71.35;34.17;;;1.20;99.90;;;;;;5045742;28;20633;-90
2022/03/24 05:07:06;;;;;;;65.57;35.33;;;1.10;99.90;;;;;;5022491;28;20048;-91
2022/03/24 05:09:32;;;;;;;62.97;32.47;;;1.10;99.90;;;;;;5022963;28;20045;-91
2022/03/24 05:11:57;;;;;;;63.65;33.65;;;1.10;99.90;;;;;;5038197;28;20080;-90
2022/03/24 05:14:23;;;;;;;62.40;32.28;;;1.00;99.90;;;;;;5041406;28;20052;-88
2022/03/24 05:16:49;;;;;;;60.40;30.92;;;1.00;99.90;;;;;;5015367;28;20049;-91
2022/03/24 05:19:14;;;;;;;61.60;30.85;;;1.00;99.90;;;;;;5039367;28;20505;-91
2022/03/24 05:21:40;;;;;;;65.60;33.78;;;1.00;99.90;;;;;;5029107;28;20108;-91
2022/03/24 05:24:06;;;;;;;67.25;35.22;;;1.00;99.90;;;;;;5035398;28;20530;-91
2022/03/24 05:26:32;;;;;;;70.40;35.80;;;1.00;99.90;;;;;;5033857;28;20040;-91
2022/03/24 05:28:57;;;;;;;54.13;30.70;;;1.00;99.90;;;;;;5014850;28;20084;-90
2022/03/24 05:31:23;;;;;;;59.42;29.42;;;0.90;99.90;;;;;;5038495;28;20087;-88
2022/03/24 05:33:50;;;;;;;59.60;30.40;;;1.00;99.90;;;;;;5038389;28;20505;-91
2022/03/24 05:36:16;;;;;;;64.05;32.22;;;1.00;99.90;;;;;;5028561;28;20057;-92
2022/03/24 05:38:42;;;;;;;66.47;32.95;;;1.00;99.90;;;;;;5045379;28;20060;-90
2022/03/24 05:41:13;;;;;;;65.10;33.72;;;1.00;99.90;;;;;;5058005;28;20612;-90
2022/03/24 05:43:39;;;;;;;59.55;31.25;;;1.00;99.90;;;;;;5032300;28;20047;-88
2022/03/24 05:46:05;;;;;;;60.58;29.55;;;1.10;99.90;;;;;;5054231;28;20049;-90
2022/03/24 05:48:32;;;;;;;58.15;30.15;;;1.10;99.90;;;;;;5054170;28;20508;-90
2022/03/24 05:50:59;;;;;;;64.50;30.92;;;1.10;99.90;;;;;;5026083;28;20559;-91
2022/03/24 05:53:25;;;;;;;60.53;31.60;;;1.20;99.90;;;;;;5045796;28;20041;-89
2022/03/24 05:55:50;;;;;;;67.53;31.67;;;1.10;99.90;;;;;;5039896;28;20410;-88
2022/03/24 05:58:17;;;;;;;57.25;30.98;;;1.10;99.90;;;;;;5036245;28;20052;-93
2022/03/24 06:00:43;;;;;;;58.80;30.52;;;1.10;99.90;;;;;;5036422;28;20067;-90
2022/03/24 06:03:09;;;;;;;56.95;29.60;;;1.20;99.90;;;;;;5051190;28;20049;-90
2022/03/24 06:05:36;;;;;;;58.47;29.85;;;1.20;99.90;;;;;;5030856;28;20051;-92
2022/03/24 06:08:03;;;;;;;69.25;34.25;;;1.20;99.90;;;;;;5033924;28;20053;-91
2022/03/24 06:10:31;;;;;;;60.95;32.25;;;1.20;99.90;;;;;;5017634;28;20049;-90
2022/03/24 06:12:58;;;;;;;68.90;35.50;;;1.30;99.90;;;;;;5034266;28;20037;-91
2022/03/24 06:15:24;;;;;;;78.30;41.10;;;1.40;99.90;;;;;;5035676;28;20045;-89
2022/03/24 06:17:50;;;;;;;82.18;41.38;;;1.50;99.90;;;;;;5061516;28;20405;-89
2022/03/24 06:20:16;;;;;;;78.60;39.97;;;1.60;99.90;;;;;;5052237;28;20056;-89
2022/03/24 06:22:53;;;;;;;74.25;40.00;;;1.70;99.90;;;;;;5060169;28;20148;-88
2022/03/24 06:25:20;;;;;;;69.57;37.45;;;1.90;99.90;;;;;;5045136;28;20048;-88
2022/03/24 06:27:55;;;;;;;71.53;36.70;;;2.10;99.90;;;;;;5041630;28;20760;-90
2022/03/24 06:30:21;;;;;;;67.32;37.33;;;2.20;99.90;;;;;;5064396;28;20129;-89
2022/03/24 06:35:15;;;;;;;71.72;38.22;;;2.50;99.90;;;;;;5029741;28;20049;-92
2022/03/24 06:37:41;;;;;;;70.85;39.55;;;2.70;99.90;;;;;;5000398;28;20136;-93
2022/03/24 06:40:09;;;;;;;72.00;40.15;;;2.80;99.90;;;;;;5013354;28;20164;-90
2022/03/24 06:42:35;;;;;;;75.25;41.47;;;2.80;99.90;;;;;;4995710;28;20191;-94
2022/03/24 06:45:06;;;;;;;76.10;42.22;;;2.90;99.90;;;;;;4998900;28;20077;-94
2022/03/24 06:47:33;;;;;;;70.90;40.55;;;2.90;99.90;;;;;;4998133;28;20053;-94
2022/03/24 06:49:59;;;;;;;66.60;38.10;;;2.90;99.90;;;;;;4995286;28;20050;-91
2022/03/24 06:52:25;;;;;;;65.68;38.30;;;3.00;99.90;;;;;;4996931;28;20041;-91
2022/03/24 06:54:51;;;;;;;69.03;39.97;;;2.90;99.90;;;;;;4996047;28;20048;-94
2022/03/24 06:57:17;;;;;;;61.60;35.60;;;3.10;99.90;;;;;;4997342;28;20049;-92
2022/03/24 07:00:14;;;;;;;;;;;;;;;;;;;;;
2022/03/24 07:02:46;;;;;;;73.95;41.08;;;3.30;99.90;;;;;;5001106;28;20054;-92
2022/03/24 07:05:18;;;;;;;76.43;41.13;;;3.30;99.90;;;;;;4983801;28;20506;-93
2022/03/24 07:07:46;;;;;;;76.57;43.42;;;3.40;99.90;;;;;;5003626;28;20584;-91
2022/03/24 07:10:17;;;;;;;74.47;43.15;;;3.50;99.90;;;;;;5018662;28;20053;-92
2022/03/24 07:12:52;;;;;;;85.53;46.20;;;3.60;99.90;;;;;;4986051;28;20061;-93
2022/03/24 07:15:18;;;;;;;85.20;46.23;;;3.60;99.90;;;;;;5006947;28;20068;-92
2022/03/24 07:17:47;;;;;;;84.43;45.20;;;3.60;99.90;;;;;;5025117;28;20095;-90
2022/03/24 07:20:36;;;;;;;92.07;50.28;;;3.80;99.90;;;;;;5008717;28;20366;-92
2022/03/24 07:23:03;;;;;;;86.68;47.45;;;3.90;99.90;;;;;;5015561;28;20057;-87
2022/03/24 07:25:31;;;;;;;85.93;48.80;;;4.00;99.90;;;;;;4997864;28;20049;-87
2022/03/24 07:27:58;;;;;;;90.97;50.17;;;4.00;99.90;;;;;;4996765;28;20156;-88
2022/03/24 07:30:26;;;;;;;90.05;50.83;;;4.10;99.90;;;;;;4998950;28;20042;-87
2022/03/24 07:32:55;;;;;;;95.38;53.30;;;4.30;99.90;;;;;;5013198;28;20049;-87
2022/03/24 07:35:24;;;;;;;97.28;55.72;;;4.40;99.90;;;;;;4992053;28;20522;-86
2022/03/24 07:37:50;;;;;;;99.78;56.92;;;4.60;99.90;;;;;;4994738;28;20053;-88
2022/03/24 07:40:18;;;;;;;106.03;57.83;;;4.70;99.90;;;;;;4994637;28;20108;-88
2022/03/24 07:42:52;;;;;;;110.13;58.00;;;4.80;99.90;;;;;;5013454;28;20053;-88
2022/03/24 07:45:19;;;;;;;92.18;54.08;;;5.00;99.90;;;;;;4997491;28;20037;-87
2022/03/24 07:48:20;;;;;;;95.57;54.50;;;5.10;99.90;;;;;;4996250;28;20561;-88
2022/03/24 07:50:48;;;;;;;84.88;51.30;;;5.30;99.90;;;;;;4984047;28;20060;-91
2022/03/24 07:53:14;;;;;;;84.97;51.60;;;5.40;99.90;;;;;;4990942;28;20508;-89
2022/03/24 07:55:42;;;;;;;93.97;52.17;;;5.50;99.90;;;;;;5010143;28;20041;-88
2022/03/24 07:58:11;;;;;;;83.60;51.15;;;5.70;99.90;;;;;;5000858;28;20444;-89
2022/03/24 08:00:37;;;;;;;81.55;49.13;;;5.80;99.90;;;;;;4994294;28;20037;-90
2022/03/24 08:03:06;;;;;;;78.90;48.10;;;6.00;99.90;;;;;;4980431;28;20064;-91
2022/03/24 08:05:32;;;;;;;80.30;48.40;;;6.10;99.90;;;;;;5009741;28;20034;-92
2022/03/24 08:07:58;;;;;;;79.20;48.65;;;6.30;99.90;;;;;;4978689;28;20049;-88
2022/03/24 08:10:24;;;;;;;77.88;45.75;;;6.40;99.90;;;;;;4996986;28;20049;-91
2022/03/24 08:12:50;;;;;;;74.03;45.33;;;6.50;99.90;;;;;;4988485;28;20541;-90
2022/03/24 08:15:18;;;;;;;82.00;47.03;;;6.70;99.90;;;;;;5010137;28;20037;-92
2022/03/24 08:17:44;;;;;;;62.47;35.97;;;6.90;99.90;;;;;;5009712;28;20143;-90
2022/03/24 08:20:11;;;;;;;65.25;37.22;;;7.00;99.90;;;;;;4989360;28;20079;-91
2022/03/24 08:22:36;;;;;;;65.70;38.28;;;7.10;99.90;;;;;;4976604;28;20037;-91
2022/03/24 08:25:10;;;;;;;66.47;38.13;;;7.30;99.90;;;;;;4980962;28;20068;-91
2022/03/24 08:27:36;;;;;;;61.85;37.03;;;7.40;99.90;;;;;;4993983;28;20053;-93
2022/03/24 08:30:06;;;;;;;60.60;37.63;;;7.50;99.90;;;;;;4979249;28;20045;-88
2022/03/24 08:32:41;;;;;;;60.85;37.70;;;7.70;99.90;;;;;;4999909;28;20076;-89
2022/03/24 08:35:08;;;;;;;55.75;34.72;;;7.90;99.90;;;;;;4973223;28;20077;-89
2022/03/24 08:37:37;;;;;;;61.92;34.90;;;8.10;99.90;;;;;;4972956;28;20069;-90
2022/03/24 08:40:07;;;;;;;65.22;35.08;;;8.30;99.20;;;;;;4965344;28;20408;-87
2022/03/24 08:42:36;;;;;;;57.50;34.90;;;8.40;98.60;;;;;;4972020;28;20137;-88
2022/03/24 08:45:05;;;;;;;63.25;35.15;;;8.60;97.60;;;;;;4979098;28;20193;-85
2022/03/24 08:47:31;;;;;;;59.28;35.95;;;8.80;97.20;;;;;;4959190;28;20085;-92
2022/03/24 08:49:57;;;;;;;59.78;36.90;;;9.00;96.40;;;;;;4988842;28;20122;-91
2022/03/24 08:52:27;;;;;;;59.45;37.58;;;9.30;95.60;;;;;;4955556;28;20066;-91
2022/03/24 08:54:59;;;;;;;59.65;33.92;;;9.50;94.90;;;;;;4973772;28;20060;-90
2022/03/24 08:57:29;;;;;;;55.65;33.95;;;9.60;93.70;;;;;;4971265;28;20737;-91
2022/03/24 09:00:12;;;;;;;55.15;35.53;;;9.80;93.20;;;;;;4969114;28;20043;-91
2022/03/24 09:03:08;;;;;;;58.20;35.30;;;10.00;92.30;;;;;;4980943;28;20051;-91
2022/03/24 09:05:50;;;;;;;55.80;34.58;;;10.20;92.10;;;;;;4976224;28;20105;-92
2022/03/24 09:08:26;;;;;;;58.40;34.13;;;10.50;91.50;;;;;;4955880;28;20050;-92
2022/03/24 09:11:25;;;;;;;;;;;;;;;;;;;;;
2022/03/24 09:13:52;;;;;;;48.72;31.88;;;10.80;90.50;;;;;;4964679;28;20054;-90
2022/03/24 09:16:21;;;;;;;56.53;33.40;;;10.90;90.00;;;;;;4971386;28;20054;-90
2022/03/24 09:21:59;;;;;;;58.53;34.80;;;11.20;88.10;;;;;;4968731;28;20411;-89
2022/03/24 09:24:27;;;;;;;57.35;34.05;;;11.40;86.00;;;;;;4977168;28;20077;-88
2022/03/24 09:27:02;;;;;;;51.90;34.85;;;11.60;85.50;;;;;;4977703;28;20534;-90
2022/03/24 09:29:41;;;;;;;;;;;;;;;;;;;;;
2022/03/24 09:32:12;;;;;;;57.63;33.08;;;11.90;83.60;;;;;;4978351;28;20046;-89
2022/03/24 09:34:49;;;;;;;47.72;32.10;;;12.20;82.30;;;;;;4973695;28;20058;-91
2022/03/24 09:37:18;;;;;;;54.03;32.03;;;12.40;80.00;;;;;;4994669;28;20041;-91
2022/03/24 09:39:49;;;;;;;61.40;35.33;;;12.60;78.50;;;;;;4995042;28;20056;-89
2022/03/24 09:42:18;;;;;;;51.22;32.72;;;12.80;77.50;;;;;;4978616;28;20081;-91
2022/03/24 09:44:50;;;;;;;56.05;32.95;;;13.00;75.40;;;;;;4995735;28;20097;-91
2022/03/24 09:47:26;;;;;;;;;;;;;;;;;;;;;
2022/03/24 09:50:00;;;;;;;51.95;31.23;;;14.70;70.70;;;;;;5012198;28;20156;-89
2022/03/24 09:52:28;;;;;;;49.35;32.88;;;15.90;66.70;;;;;;5008140;28;20152;-90
2022/03/24 09:54:57;;;;;;;49.65;31.88;;;16.90;62.90;;;;;;4994594;28;20081;-89
2022/03/24 09:57:47;;;;;;;44.78;30.48;;;17.80;59.40;;;;;;4999129;28;20477;-91
2022/03/24 10:00:28;;;;;;;52.30;31.60;;;18.90;56.30;;;;;;5008625;28;20058;-91
2022/03/24 10:03:21;;;;;;;46.60;29.63;;;19.60;52.20;;;;;;5011419;28;20046;-90
2022/03/24 10:06:10;;;;;;;46.60;31.00;;;20.30;50.40;;;;;;4983847;28;20077;-91
2022/03/24 10:08:37;;;;;;;48.95;30.23;;;20.80;46.60;;;;;;4982145;28;20038;-90
2022/03/24 10:11:08;;;;;;;45.80;30.30;;;21.10;46.20;;;;;;5003182;28;20041;-90
2022/03/24 10:16:45;;;;;;;43.05;31.80;;;22.00;44.60;;;;;;4990390;28;20049;-91
2022/03/24 10:22:19;;;;;;;49.50;31.50;;;22.80;42.00;;;;;;4992321;28;20113;-91
2022/03/24 10:24:51;;;;;;;43.30;32.75;;;23.30;40.70;;;;;;4986922;28;20411;-90
2022/03/24 10:27:21;;;;;;;47.17;33.35;;;23.90;40.10;;;;;;4996695;28;20053;-90
2022/03/24 10:29:48;;;;;;;46.17;31.58;;;24.30;39.10;;;;;;4995755;28;20113;-90
2022/03/24 10:32:25;;;;;;;47.20;31.92;;;24.70;38.40;;;;;;4982716;28;20058;-91
2022/03/24 10:34:58;;;;;;;42.65;30.17;;;24.90;35.70;;;;;;5015984;28;20148;-92
2022/03/24 10:37:27;;;;;;;41.65;30.00;;;24.80;36.60;;;;;;4997259;28;20053;-91
2022/03/24 10:40:08;;;;;;;43.42;30.15;;;25.00;35.90;;;;;;4994257;28;20054;-91
2022/03/24 10:42:40;;;;;;;45.05;28.58;;;25.30;34.80;;;;;;4994972;28;20128;-90
2022/03/24 10:45:11;;;;;;;42.10;29.05;;;25.70;34.20;;;;;;5012775;28;20425;-90
2022/03/24 10:47:41;;;;;;;40.35;29.48;;;25.90;33.70;;;;;;4992016;28;20112;-90
2022/03/24 10:50:28;;;;;;;38.25;27.20;;;26.10;33.20;;;;;;4996175;28;20061;-89
2022/03/24 10:53:21;;;;;;;37.05;28.00;;;26.10;30.70;;;;;;4979074;28;20051;-90
2022/03/24 10:56:18;;;;;;;39.50;27.63;;;26.10;31.70;;;;;;4996976;28;20254;-90
2022/03/24 10:59:10;;;;;;;37.53;26.30;;;26.60;32.50;;;;;;5010853;28;20133;-90
2022/03/24 11:01:49;;;;;;;37.15;27.42;;;27.10;29.90;;;;;;4997267;28;20091;-92
2022/03/24 11:04:19;;;;;;;35.33;26.05;;;27.20;30.30;;;;;;4991744;28;20049;-91
2022/03/24 11:06:49;;;;;;;38.85;27.35;;;27.60;29.90;;;;;;5000080;28;20411;-92
2022/03/24 11:09:29;;;;;;;34.22;25.73;;;27.70;29.00;;;;;;4999016;28;20092;-94
2022/03/24 11:12:32;;;;;;;37.70;25.48;;;27.80;28.60;;;;;;5013453;28;20058;-92
2022/03/24 11:14:59;;;;;;;36.28;24.80;;;28.00;28.20;;;;;;5014716;28;20057;-92
2022/03/24 11:17:29;;;;;;;34.08;24.67;;;28.20;28.20;;;;;;4994208;28;20553;-92
2022/03/24 11:20:08;;;;;;;34.58;23.25;;;28.40;27.40;;;;;;4981396;28;20056;-91
2022/03/24 11:22:46;;;;;;;29.48;21.70;;;28.50;27.20;;;;;;5001257;28;20042;-90
2022/03/24 11:25:12;;;;;;;36.28;22.27;;;28.80;26.60;;;;;;5002154;28;20056;-88
2022/03/24 11:27:38;;;;;;;37.10;22.85;;;29.00;26.60;;;;;;4973141;28;20042;-91
2022/03/24 11:30:06;;;;;;;28.05;21.60;;;29.20;25.80;;;;;;4971418;28;20120;-89
2022/03/24 11:32:35;;;;;;;25.05;19.60;;;29.40;25.30;;;;;;4992077;28;20573;-90
2022/03/24 11:35:11;;;;;;;32.08;19.38;;;29.60;24.50;;;;;;4993687;28;20573;-89
2022/03/24 11:37:40;;;;;;;29.95;19.17;;;29.60;24.50;;;;;;5006196;28;20073;-89
2022/03/24 11:40:18;;;;;;;30.10;18.60;;;29.70;24.10;;;;;;5007308;28;20045;-89
2022/03/24 11:42:53;;;;;;;25.30;16.42;;;29.80;23.80;;;;;;4991324;28;20048;-92
2022/03/24 11:45:40;;;;;;;34.28;18.77;;;30.00;23.20;;;;;;4997076;28;20180;-92
2022/03/24 11:48:14;;;;;;;24.27;16.63;;;30.00;23.00;;;;;;4999918;28;20042;-91
2022/03/24 11:50:50;;;;;;;30.02;19.08;;;30.20;22.90;;;;;;5010815;28;20046;-93
2022/03/24 11:53:25;;;;;;;28.88;19.95;;;30.40;23.20;;;;;;5006928;28;20081;-94
2022/03/24 11:56:03;;;;;;;29.08;19.08;;;30.50;23.20;;;;;;5006491;28;20054;-92
2022/03/24 11:58:30;;;;;;;25.80;19.27;;;30.40;22.90;;;;;;4988603;28;20050;-91
2022/03/24 12:00:57;;;;;;;29.80;19.92;;;30.50;22.60;;;;;;5016056;28;20121;-91
2022/03/24 12:03:45;;;;;;;29.60;18.27;;;30.80;22.40;;;;;;4982842;28;20049;-91
2022/03/24 12:06:14;;;;;;;24.52;17.92;;;31.20;22.60;;;;;;4991922;28;20099;-90
2022/03/24 12:08:44;;;;;;;26.73;18.30;;;31.30;21.90;;;;;;4992832;28;20042;-91
2022/03/24 12:11:32;;;;;;;26.80;17.42;;;31.30;20.70;;;;;;4980061;28;20136;-91
2022/03/24 12:13:59;;;;;;;31.70;18.15;;;31.10;22.60;;;;;;4993283;28;20053;-90
2022/03/24 12:16:26;;;;;;;24.33;16.77;;;31.10;21.90;;;;;;4968159;28;20060;-90
2022/03/24 12:18:53;;;;;;;24.25;15.60;;;31.10;21.80;;;;;;4988545;28;20222;-88
2022/03/24 12:21:21;;;;;;;20.10;16.77;;;31.20;22.10;;;;;;4988028;28;20057;-86
2022/03/24 12:24:02;;;;;;;22.55;13.90;;;31.20;21.90;;;;;;4991131;28;20057;-86
2022/03/24 12:26:52;;;;;;;19.38;13.85;;;31.10;21.50;;;;;;4992367;28;20142;-87
2022/03/24 12:29:22;;;;;;;22.23;14.23;;;30.70;21.00;;;;;;4996750;28;20062;-87
2022/03/24 12:31:58;;;;;;;22.98;17.48;;;30.80;21.80;;;;;;4987601;28;20061;-86
2022/03/24 12:34:39;;;;;;;30.02;20.33;;;31.00;21.90;;;;;;5007641;28;20054;-88
2022/03/24 12:37:06;;;;;;;25.15;16.58;;;31.30;21.90;;;;;;5009226;28;20061;-86
2022/03/24 12:39:37;;;;;;;25.35;18.70;;;31.50;21.40;;;;;;4969125;28;20146;-88
2022/03/24 12:42:15;;;;;;;27.23;19.15;;;31.60;22.10;;;;;;4988585;28;20072;-87
2022/03/24 12:44:55;;;;;;;32.78;20.42;;;31.50;22.10;;;;;;5008428;28;20084;-88
2022/03/24 12:47:37;;;;;;;31.75;21.00;;;31.20;21.90;;;;;;4990735;28;20053;-87
2022/03/24 12:50:21;;;;;;;27.38;19.98;;;30.90;22.40;;;;;;5004956;28;20120;-87
2022/03/24 12:53:00;;;;;;;32.58;19.90;;;31.00;22.60;;;;;;4991183;28;20045;-88
2022/03/24 12:55:37;;;;;;;27.88;21.25;;;31.30;22.30;;;;;;4993355;28;20133;-87
2022/03/24 12:58:10;;;;;;;28.50;20.63;;;31.20;21.80;;;;;;4991438;28;20042;-88
2022/03/24 13:00:54;;;;;;;28.48;20.55;;;31.00;21.80;;;;;;4991105;28;20123;-87
2022/03/24 13:03:20;;;;;;;33.55;21.55;;;30.60;22.40;;;;;;5008230;28;20111;-86